Time;durP1;ratioP1;P1;durP2;ratioP2;P2;SDS_P1;SDS_P2;PMS_P1;PMS_P2;Temp;Humidity;BMP_temperature;BMP_pressure;BME280_temperature;BME280_humidity;BME280_pressure;Samples;Min_cycle;Max_cycle;Signal;HPM_P1;HPM_P2
2022/04/20 00:00:53;;;;;;;4.85;4.47;;;;;;;-141.48;100.00;69781.59;5229037;28;20475;-55
2022/04/20 00:03:24;;;;;;;3.75;3.53;;;;;;;-141.48;100.00;69781.59;5210585;28;20486;-56
2022/04/20 00:05:54;;;;;;;4.57;4.38;;;;;;;-141.48;100.00;69781.59;5211580;28;20029;-56
2022/04/20 00:08:25;;;;;;;4.47;4.25;;;;;;;-141.48;100.00;69781.59;5227732;28;20041;-57
2022/04/20 00:10:55;;;;;;;5.35;4.32;;;;;;;-141.48;100.00;69781.59;5211399;28;20044;-58
2022/04/20 00:13:25;;;;;;;3.67;3.47;;;;;;;-141.48;100.00;69781.59;5211238;28;20470;-56
2022/04/20 00:15:57;;;;;;;5.22;4.82;;;;;;;-141.48;100.00;69781.59;5229365;28;20461;-56
2022/04/20 00:18:28;;;;;;;5.20;3.72;;;;;;;-141.48;100.00;69781.59;5211173;28;20024;-57
2022/04/20 00:20:58;;;;;;;3.97;3.78;;;;;;;-141.48;100.00;69781.59;5211307;28;20129;-57
2022/04/20 00:23:29;;;;;;;4.13;3.92;;;;;;;-141.48;100.00;69781.59;5227744;28;20039;-56
2022/04/20 00:25:59;;;;;;;10.48;4.18;;;;;;;-141.48;100.00;69781.59;5211292;28;20103;-56
2022/04/20 00:28:30;;;;;;;3.78;3.45;;;;;;;-141.48;100.00;69781.59;5211034;28;20490;-54
2022/04/20 00:31:00;;;;;;;4.20;3.67;;;;;;;-141.48;100.00;69781.59;5227486;28;20021;-59
2022/04/20 00:33:31;;;;;;;4.75;4.35;;;;;;;-141.48;100.00;69781.59;5227208;28;20029;-57
2022/04/20 00:36:02;;;;;;;3.90;3.63;;;;;;;-141.48;100.00;69781.59;5227545;28;20090;-57
2022/04/20 00:38:32;;;;;;;5.95;5.65;;;;;;;-141.48;100.00;69781.59;5210979;28;20074;-57
2022/04/20 00:41:03;;;;;;;4.78;4.38;;;;;;;-141.48;100.00;69781.59;5227415;28;20437;-57
2022/04/20 00:43:33;;;;;;;5.28;4.90;;;;;;;-141.48;100.00;69781.59;5210581;28;20025;-58
2022/04/20 00:46:06;;;;;;;5.22;4.80;;;;;;;-141.48;100.00;69781.59;5210789;28;20040;-57
2022/04/20 00:48:38;;;;;;;4.72;4.43;;;;;;;-141.48;100.00;69781.59;5210661;28;20029;-57
2022/04/20 00:51:08;;;;;;;17.08;5.25;;;;;;;-141.48;100.00;69781.59;5210696;28;20035;-57
2022/04/20 00:53:39;;;;;;;4.75;4.38;;;;;;;-141.48;100.00;69781.59;5210322;28;20029;-56
2022/04/20 00:56:09;;;;;;;4.20;3.90;;;;;;;-141.48;100.00;69781.59;5228588;28;20091;-55
2022/04/20 00:58:41;;;;;;;4.97;4.68;;;;;;;-141.48;100.00;69781.59;5210811;28;20035;-56
2022/04/20 01:01:12;;;;;;;5.18;4.72;;;;;;;-141.48;100.00;69781.59;5227472;28;20519;-59
2022/04/20 01:03:44;;;;;;;4.70;4.30;;;;;;;-141.48;100.00;69781.59;5209792;28;20395;-57
2022/04/20 01:06:14;;;;;;;5.32;5.03;;;;;;;-141.48;100.00;69781.59;5210513;28;20025;-59
2022/04/20 01:08:45;;;;;;;6.95;5.32;;;;;;;-141.48;100.00;69781.59;5226531;28;20052;-58
2022/04/20 01:11:15;;;;;;;5.25;4.95;;;;;;;-141.48;100.00;69781.59;5210346;28;20466;-54
2022/04/20 01:13:46;;;;;;;4.57;4.13;;;;;;;-141.48;100.00;69781.59;5209973;28;20094;-56
2022/04/20 01:16:16;;;;;;;5.05;4.85;;;;;;;-141.48;100.00;69781.59;5210349;28;20456;-57
2022/04/20 01:18:53;;;;;;;5.25;4.85;;;;;;;-141.48;100.00;69781.59;5210062;28;20115;-58
2022/04/20 01:21:24;;;;;;;5.80;5.07;;;;;;;-141.48;100.00;69781.59;5210256;28;20147;-58
2022/04/20 01:23:54;;;;;;;4.82;4.43;;;;;;;-141.48;100.00;69781.59;5226306;28;20025;-56
2022/04/20 01:26:27;;;;;;;5.75;5.45;;;;;;;-141.48;100.00;69781.59;5209962;28;20067;-57
2022/04/20 01:29:01;;;;;;;4.68;4.45;;;;;;;-141.48;100.00;69781.59;5209895;28;20021;-56
2022/04/20 01:31:31;;;;;;;7.13;4.90;;;;;;;-141.48;100.00;69781.59;5210143;28;20025;-57
2022/04/20 01:34:02;;;;;;;10.40;5.88;;;;;;;-141.48;100.00;69781.59;5209527;28;20032;-58
2022/04/20 01:36:32;;;;;;;5.53;5.20;;;;;;;-141.48;100.00;69781.59;5209902;28;20056;-62
2022/04/20 01:39:03;;;;;;;6.95;6.47;;;;;;;-141.48;100.00;69781.59;5209705;28;20041;-60
2022/04/20 01:41:33;;;;;;;5.13;4.72;;;;;;;-141.48;100.00;69781.59;5227591;28;20025;-56
2022/04/20 01:44:04;;;;;;;5.60;5.18;;;;;;;-141.48;100.00;69781.59;5209461;28;20104;-57
2022/04/20 01:46:35;;;;;;;4.68;4.38;;;;;;;-141.48;100.00;69781.59;5209671;28;20036;-61
2022/04/20 01:49:05;;;;;;;6.30;5.82;;;;;;;-141.48;100.00;69781.59;5209513;28;20028;-57
2022/04/20 01:51:50;;;;;;;4.93;4.60;;;;;;;-141.48;100.00;69781.59;5209569;28;20227;-56
2022/04/20 01:54:21;;;;;;;4.97;4.57;;;;;;;-141.48;100.00;69781.59;5209110;28;20024;-57
2022/04/20 01:56:52;;;;;;;4.45;4.18;;;;;;;-141.48;100.00;69781.59;5226127;28;20032;-56
2022/04/20 01:59:22;;;;;;;6.05;5.32;;;;;;;-141.48;100.00;69781.59;5209765;28;20103;-55
2022/04/20 02:04:42;;;;;;;4.25;4.03;;;;;;;-141.48;100.00;69781.59;5227157;28;20098;-57
2022/04/20 02:07:12;;;;;;;4.43;4.22;;;;;;;-141.48;100.00;69781.59;5227420;28;20471;-58
2022/04/20 02:09:42;;;;;;;3.45;3.25;;;;;;;-141.48;100.00;69781.59;5209572;28;20071;-55
2022/04/20 02:12:13;;;;;;;5.15;4.60;;;;;;;-141.48;100.00;69781.59;5226040;28;20024;-56
2022/04/20 02:14:47;;;;;;;4.25;4.05;;;;;;;-141.48;100.00;69781.59;5209184;28;20040;-56
2022/04/20 02:17:17;;;;;;;4.57;4.38;;;;;;;-141.48;100.00;69781.59;5227049;28;20027;-56
2022/04/20 02:19:49;;;;;;;4.70;4.40;;;;;;;-141.48;100.00;69781.59;5208969;28;20486;-53
2022/04/20 02:22:19;;;;;;;5.18;4.78;;;;;;;-141.48;100.00;69781.59;5209501;28;20039;-57
2022/04/20 02:24:49;;;;;;;5.57;5.13;;;;;;;-141.48;100.00;69781.59;5225670;28;20021;-55
2022/04/20 02:27:20;;;;;;;10.93;6.28;;;;;;;-141.48;100.00;69781.59;5209998;28;20029;-57
2022/04/20 02:29:50;;;;;;;4.47;4.18;;;;;;;-141.48;100.00;69781.59;5208763;28;20387;-56
2022/04/20 02:32:24;;;;;;;6.20;5.75;;;;;;;-141.48;100.00;69781.59;5208911;28;20036;-53
2022/04/20 02:34:54;;;;;;;6.13;5.72;;;;;;;-141.48;100.00;69781.59;5225025;28;20024;-53
2022/04/20 02:37:25;;;;;;;6.57;6.18;;;;;;;-141.48;100.00;69781.59;5208947;28;20502;-55
2022/04/20 02:39:55;;;;;;;4.40;4.13;;;;;;;-141.48;100.00;69781.59;5225271;28;20107;-53
2022/04/20 02:42:26;;;;;;;5.53;5.15;;;;;;;-141.48;100.00;69781.59;5208585;28;20363;-56
2022/04/20 02:44:56;;;;;;;6.78;5.38;;;;;;;-141.48;100.00;69781.59;5208226;28;20016;-53
2022/04/20 02:47:27;;;;;;;5.13;4.85;;;;;;;-141.48;100.00;69781.59;5209076;28;20032;-52
2022/04/20 02:49:57;;;;;;;5.13;4.68;;;;;;;-141.48;100.00;69781.59;5208585;28;20055;-53
2022/04/20 02:52:28;;;;;;;5.93;5.63;;;;;;;-141.48;100.00;69781.59;5208683;28;20029;-55
2022/04/20 02:54:58;;;;;;;5.30;5.00;;;;;;;-141.48;100.00;69781.59;5208167;28;20073;-58
2022/04/20 02:57:29;;;;;;;6.45;5.25;;;;;;;-141.48;100.00;69781.59;5208634;28;20024;-55
2022/04/20 03:00:00;;;;;;;4.88;4.57;;;;;;;-141.48;100.00;69781.59;5224916;28;20024;-55
2022/04/20 03:02:31;;;;;;;5.05;4.78;;;;;;;-141.48;100.00;69781.59;5208406;28;20021;-56
2022/04/20 03:05:02;;;;;;;5.80;5.40;;;;;;;-141.48;100.00;69781.59;5207812;28;20017;-56
2022/04/20 03:07:32;;;;;;;5.63;5.22;;;;;;;-141.48;100.00;69781.59;5208401;28;20402;-55
2022/04/20 03:10:03;;;;;;;4.93;4.63;;;;;;;-141.48;100.00;69781.59;5208274;28;20025;-53
2022/04/20 03:12:34;;;;;;;5.38;5.18;;;;;;;-141.48;100.00;69781.59;5208197;28;20029;-57
2022/04/20 03:15:05;;;;;;;7.15;6.55;;;;;;;-141.48;100.00;69781.59;5208155;28;20061;-56
2022/04/20 03:17:36;;;;;;;6.22;5.75;;;;;;;-141.48;100.00;69781.59;5191874;28;20044;-54
2022/04/20 03:20:07;;;;;;;5.75;5.35;;;;;;;-141.48;100.00;69781.59;5225619;28;20079;-56
2022/04/20 03:22:37;;;;;;;5.93;5.50;;;;;;;-141.48;100.00;69781.59;5226288;28;20434;-52
2022/04/20 03:25:08;;;;;;;5.95;5.65;;;;;;;-141.48;100.00;69781.59;5207625;28;20063;-58
2022/04/20 03:27:39;;;;;;;4.65;4.32;;;;;;;-141.48;100.00;69781.59;5208220;28;20029;-56
2022/04/20 03:30:11;;;;;;;9.25;5.35;;;;;;;-141.48;100.00;69781.59;5208445;28;20442;-57
2022/04/20 03:32:42;;;;;;;5.53;5.22;;;;;;;-141.48;100.00;69781.59;5212313;28;20435;-52
2022/04/20 03:35:14;;;;;;;6.55;6.00;;;;;;;-141.48;100.00;69781.59;5211648;28;20491;-56
2022/04/20 03:37:45;;;;;;;6.32;5.85;;;;;;;-141.48;100.00;69781.59;5212145;28;20135;-56
2022/04/20 03:40:15;;;;;;;22.30;5.35;;;;;;;-141.48;100.00;69781.59;5212157;28;20104;-53
2022/04/20 03:42:46;;;;;;;4.85;4.43;;;;;;;-141.48;100.00;69781.59;5228630;28;20501;-54
2022/04/20 03:45:16;;;;;;;7.25;6.60;;;;;;;-141.48;100.00;69781.59;5228524;28;20506;-54
2022/04/20 03:47:47;;;;;;;6.72;6.18;;;;;;;-141.48;100.00;69781.59;5212210;28;20035;-54
2022/04/20 03:50:18;;;;;;;6.30;6.00;;;;;;;-141.48;100.00;69781.59;5212291;28;20017;-53
2022/04/20 03:52:48;;;;;;;6.85;5.07;;;;;;;-141.48;100.00;69781.59;5212824;28;20526;-54
2022/04/20 03:55:19;;;;;;;6.60;6.18;;;;;;;-141.48;100.00;69781.59;5211704;28;20065;-53
2022/04/20 03:57:49;;;;;;;5.70;5.30;;;;;;;-141.48;100.00;69781.59;5211775;28;20082;-52
2022/04/20 04:00:20;;;;;;;5.18;4.97;;;;;;;-141.48;100.00;69781.59;5211657;28;20107;-54
2022/04/20 04:02:52;;;;;;;10.65;6.72;;;;;;;-141.48;100.00;69781.59;5228283;28;20029;-54
2022/04/20 04:05:23;;;;;;;5.72;5.38;;;;;;;-141.48;100.00;69781.59;5211515;28;20120;-56
2022/04/20 04:07:53;;;;;;;4.85;4.55;;;;;;;-141.48;100.00;69781.59;5211698;28;20111;-55
2022/04/20 04:10:24;;;;;;;4.97;4.53;;;;;;;-141.48;100.00;69781.59;5211339;28;20024;-55
2022/04/20 04:12:58;;;;;;;7.10;6.50;;;;;;;-141.48;100.00;69781.59;5211944;28;20394;-52
2022/04/20 04:15:28;;;;;;;8.00;6.22;;;;;;;-141.48;100.00;69781.59;5211177;28;20043;-55
2022/04/20 04:17:59;;;;;;;5.65;5.30;;;;;;;-141.48;100.00;69781.59;5211569;28;20033;-58
2022/04/20 04:20:30;;;;;;;6.40;5.80;;;;;;;-141.48;100.00;69781.59;5227967;28;20021;-56
2022/04/20 04:23:01;;;;;;;5.45;5.05;;;;;;;-141.48;100.00;69781.59;5193478;28;20029;-55
2022/04/20 04:25:32;;;;;;;5.85;5.45;;;;;;;-141.48;100.00;69781.59;5199399;28;20025;-55
2022/04/20 04:28:03;;;;;;;6.43;5.97;;;;;;;-141.48;100.00;69781.59;5207153;28;20083;-53
2022/04/20 04:30:33;;;;;;;11.82;5.65;;;;;;;-141.48;100.00;69781.59;5207409;28;20018;-56
2022/04/20 04:33:03;;;;;;;7.50;6.13;;;;;;;-141.48;100.00;69781.59;5234228;23;20032;-82
2022/04/20 04:35:34;;;;;;;6.32;5.65;;;;;;;-141.48;100.00;69781.59;5230029;28;20021;-81
2022/04/20 04:38:04;;;;;;;5.65;5.35;;;;;;;-141.48;100.00;69781.59;5231414;28;20044;-81
2022/04/20 04:40:35;;;;;;;5.35;4.95;;;;;;;-141.48;100.00;69781.59;5213305;28;20102;-80
2022/04/20 04:43:05;;;;;;;6.90;6.28;;;;;;;-141.48;100.00;69781.59;5229766;28;20136;-81
2022/04/20 04:48:36;;;;;;;6.07;5.57;;;;;;;-141.48;100.00;69781.59;5229948;28;20051;-78
2022/04/20 04:51:08;;;;;;;7.35;6.75;;;;;;;-141.48;100.00;69781.59;5236678;28;20025;-81
2022/04/20 04:53:38;;;;;;;6.43;5.82;;;;;;;-141.48;100.00;69781.59;5244043;28;20024;-81
2022/04/20 04:56:09;;;;;;;7.75;7.25;;;;;;;-141.48;100.00;69781.59;5231423;28;20025;-81
2022/04/20 04:58:39;;;;;;;6.43;5.93;;;;;;;-141.48;100.00;69781.59;5231455;28;20028;-82
2022/04/20 05:01:09;;;;;;;9.13;6.28;;;;;;;-141.48;100.00;69781.59;5229505;28;20504;-82
2022/04/20 05:03:40;;;;;;;6.65;6.10;;;;;;;-141.48;100.00;69781.59;5231284;28;20051;-81
2022/04/20 05:06:10;;;;;;;5.88;5.57;;;;;;;-141.48;100.00;69781.59;5230102;28;20044;-82
2022/04/20 05:08:40;;;;;;;6.72;6.05;;;;;;;-141.48;100.00;69781.59;5238197;28;20017;-80
2022/04/20 05:11:11;;;;;;;7.50;6.80;;;;;;;-141.48;100.00;69781.59;5249047;28;20067;-80
2022/04/20 05:13:41;;;;;;;7.85;5.85;;;;;;;-141.48;100.00;69781.59;5248414;28;20104;-81
2022/04/20 05:16:12;;;;;;;7.65;5.65;;;;;;;-141.48;100.00;69781.59;5248197;28;20040;-82
2022/04/20 05:18:42;;;;;;;5.25;4.93;;;;;;;-141.48;100.00;69781.59;5252076;28;20029;-82
2022/04/20 05:21:13;;;;;;;4.88;4.68;;;;;;;-141.48;100.00;69781.59;5248369;28;20025;-82
2022/04/20 05:23:44;;;;;;;9.95;6.90;;;;;;;-141.48;100.00;69781.59;5234499;28;20067;-81
2022/04/20 05:26:14;;;;;;;6.70;6.18;;;;;;;-141.48;100.00;69781.59;5231950;28;20086;-81
2022/04/20 05:28:44;;;;;;;5.65;5.15;;;;;;;-141.48;100.00;69781.59;5226536;28;20499;-82
2022/04/20 05:31:15;;;;;;;5.47;5.13;;;;;;;-141.48;100.00;69781.59;5225850;28;20037;-81
2022/04/20 05:33:45;;;;;;;5.78;5.38;;;;;;;-141.48;100.00;69781.59;5218714;28;20074;-81
2022/04/20 05:36:18;;;;;;;6.75;6.15;;;;;;;-141.48;100.00;69781.59;5192064;28;20377;-82
2022/04/20 05:47:44;;;;;;;;;;;;;;;-141.48;100.00;69781.59;1647815;26;20049;-57
2022/04/20 05:50:15;;;;;;;7.00;6.32;;;;;;;-141.48;100.00;69781.59;5190975;28;20304;-54
2022/04/20 05:52:46;;;;;;;6.43;5.90;;;;;;;-141.48;100.00;69781.59;5190646;28;20029;-55
2022/04/20 05:55:16;;;;;;;6.18;5.63;;;;;;;-141.48;100.00;69781.59;5219108;28;20025;-57
2022/04/20 05:57:47;;;;;;;5.53;4.97;;;;;;;-141.48;100.00;69781.59;5204328;28;20124;-57
2022/04/20 06:00:18;;;;;;;8.18;7.32;;;;;;;-141.48;100.00;69781.59;5204167;28;20013;-57
2022/04/20 06:02:48;;;;;;;6.13;5.72;;;;;;;-141.48;100.00;69781.59;5204235;28;20021;-58
2022/04/20 06:05:20;;;;;;;7.63;5.97;;;;;;;-141.48;100.00;69781.59;5204078;28;20032;-56
2022/04/20 06:07:51;;;;;;;7.65;5.57;;;;;;;-141.48;100.00;69781.59;5204097;28;20479;-57
2022/04/20 06:10:21;;;;;;;7.97;6.07;;;;;;;-141.48;100.00;69781.59;5204171;28;20029;-55
2022/04/20 06:12:52;;;;;;;16.02;5.90;;;;;;;-141.48;100.00;69781.59;5204323;28;20034;-57
2022/04/20 06:15:22;;;;;;;6.57;5.88;;;;;;;-141.48;100.00;69781.59;5203718;28;20021;-57
2022/04/20 06:17:53;;;;;;;5.38;5.03;;;;;;;-141.48;100.00;69781.59;5204004;28;20116;-58
2022/04/20 06:20:23;;;;;;;5.60;5.30;;;;;;;-141.48;100.00;69781.59;5204320;28;20018;-55
2022/04/20 06:22:53;;;;;;;6.95;6.45;;;;;;;-141.48;100.00;69781.59;5203683;28;20021;-57
2022/04/20 06:25:29;;;;;;;;;;;;;;;10.28;97.79;101532.09;5275536;27;20344;-55
2022/04/20 06:28:00;;;;;;;6.28;5.78;;;;;;;10.38;97.87;101516.13;5241903;28;19912;-57
2022/04/20 06:30:31;;;;;;;4.30;4.00;;;;;;;10.52;97.27;101533.69;5241634;28;20021;-54
2022/04/20 06:33:01;;;;;;;6.68;6.15;;;;;;;10.63;96.05;101532.03;5241675;28;20293;-56
2022/04/20 06:38:12;;;;;;;6.32;5.95;;;;;;;10.69;94.75;101533.75;6180428;22;20051;-82
2022/04/20 06:40:43;;;;;;;11.32;5.68;;;;;;;10.69;94.75;101533.75;5243001;28;20029;-82
2022/04/20 06:43:14;;;;;;;6.03;5.55;;;;;;;10.69;94.75;101533.75;5225618;28;20108;-81
2022/04/20 06:45:44;;;;;;;9.05;4.90;;;;;;;10.69;94.75;101533.75;5244524;28;20154;-81
2022/04/20 06:48:15;;;;;;;5.65;5.13;;;;;;;10.69;94.75;101533.75;5226731;28;20123;-80
2022/04/20 06:50:45;;;;;;;5.85;5.32;;;;;;;10.69;94.75;101533.75;5245361;28;20024;-83
2022/04/20 06:58:53;;;;;;;6.00;5.60;;;;;;;10.69;94.75;101533.75;5266458;28;20063;-82
2022/04/20 07:01:24;;;;;;;5.20;4.88;;;;;;;10.69;94.75;101533.75;5268917;28;20024;-81
2022/04/20 07:03:54;;;;;;;6.70;6.03;;;;;;;10.69;94.75;101533.75;5264868;28;20165;-81
2022/04/20 07:06:24;;;;;;;9.85;6.57;;;;;;;10.69;94.75;101533.75;5259811;28;20112;-80
2022/04/20 07:08:55;;;;;;;7.18;5.90;;;;;;;10.69;94.75;101533.75;5243860;28;20017;-79
2022/04/20 07:11:28;;;;;;;6.25;5.85;;;;;;;10.69;94.75;101533.75;5244366;28;20513;-80
2022/04/20 07:13:58;;;;;;;4.15;3.95;;;;;;;10.69;94.75;101533.75;5229601;28;20019;-79
2022/04/20 07:16:29;;;;;;;5.95;5.35;;;;;;;10.69;94.75;101533.75;5247449;28;20032;-79
2022/04/20 07:18:59;;;;;;;12.90;5.30;;;;;;;10.69;94.75;101533.75;5260499;28;20100;-81
2022/04/20 07:21:31;;;;;;;7.82;5.68;;;;;;;10.69;94.75;101533.75;5246920;28;20086;-80
2022/04/20 07:24:01;;;;;;;4.90;4.60;;;;;;;10.69;94.75;101533.75;5243684;28;20031;-81
2022/04/20 07:26:32;;;;;;;5.88;5.32;;;;;;;10.69;94.75;101533.75;5226724;28;20025;-80
2022/04/20 07:29:02;;;;;;;5.82;5.43;;;;;;;10.69;94.75;101533.75;5245775;28;20462;-81
2022/04/20 07:31:32;;;;;;;7.45;5.47;;;;;;;10.69;94.75;101533.75;5245684;28;20489;-77
2022/04/20 07:34:03;;;;;;;6.05;5.30;;;;;;;10.69;94.75;101533.75;5245416;28;20028;-79
2022/04/20 07:36:33;;;;;;;11.18;5.38;;;;;;;10.69;94.75;101533.75;5235196;28;20025;-83
2022/04/20 07:39:03;;;;;;;5.13;4.72;;;;;;;10.69;94.75;101533.75;5234472;28;20403;-81
2022/04/20 07:41:34;;;;;;;6.30;5.05;;;;;;;10.69;94.75;101533.75;5214813;28;20083;-78
2022/04/20 07:44:05;;;;;;;5.38;4.93;;;;;;;10.69;94.75;101533.75;5230464;28;20040;-80
2022/04/20 07:46:36;;;;;;;6.03;5.55;;;;;;;10.69;94.75;101533.75;5230714;28;20086;-80
2022/04/20 07:51:55;;;;;;;7.15;6.45;;;;;;;10.69;94.75;101533.75;5230122;28;20407;-80
2022/04/20 07:54:26;;;;;;;5.57;5.07;;;;;;;10.69;94.75;101533.75;5229421;28;20120;-80
2022/04/20 07:56:56;;;;;;;5.75;5.40;;;;;;;10.69;94.75;101533.75;5230657;28;20062;-82
2022/04/20 07:59:26;;;;;;;6.75;5.03;;;;;;;10.69;94.75;101533.75;5231126;28;20024;-80
2022/04/20 08:01:57;;;;;;;7.18;6.10;;;;;;;10.69;94.75;101533.75;5236281;28;20060;-78
2022/04/20 08:04:27;;;;;;;5.30;4.93;;;;;;;10.69;94.75;101533.75;5214994;28;20079;-79
2022/04/20 08:06:58;;;;;;;5.32;4.82;;;;;;;10.69;94.75;101533.75;5233250;28;20017;-80
2022/04/20 08:09:29;;;;;;;8.32;6.32;;;;;;;10.69;94.75;101533.75;5233038;28;20021;-80
2022/04/20 08:12:52;;;;;;;5.20;4.90;;;;;;;10.69;94.75;101533.75;5233164;28;20021;-80
2022/04/20 08:15:23;;;;;;;5.10;4.78;;;;;;;10.69;94.75;101533.75;5232807;28;20025;-80
2022/04/20 08:17:53;;;;;;;3.72;3.55;;;;;;;10.69;94.75;101533.75;5232209;28;20024;-81
2022/04/20 08:20:23;;;;;;;5.88;5.28;;;;;;;10.69;94.75;101533.75;5214224;28;20115;-80
2022/04/20 08:22:54;;;;;;;5.22;4.93;;;;;;;10.69;94.75;101533.75;5213608;28;20021;-79
2022/04/20 08:25:24;;;;;;;3.90;3.72;;;;;;;10.69;94.75;101533.75;5231252;28;20036;-78
2022/04/20 08:27:54;;;;;;;4.78;4.47;;;;;;;10.69;94.75;101533.75;5233220;28;20083;-79
2022/04/20 08:30:25;;;;;;;4.55;4.25;;;;;;;10.69;94.75;101533.75;5233095;28;20158;-80
2022/04/20 08:32:55;;;;;;;8.18;4.90;;;;;;;10.69;94.75;101533.75;5233382;28;20032;-80
2022/04/20 08:35:26;;;;;;;5.30;4.82;;;;;;;10.69;94.75;101533.75;5232952;28;20013;-80
2022/04/20 08:37:56;;;;;;;4.85;4.45;;;;;;;10.69;94.75;101533.75;5233234;28;20084;-80
2022/04/20 08:40:28;;;;;;;4.57;4.25;;;;;;;10.69;94.75;101533.75;5233409;28;20025;-80
2022/04/20 08:43:01;;;;;;;3.95;3.72;;;;;;;10.69;94.75;101533.75;5236210;28;20033;-79
2022/04/20 08:45:37;;;;;;;4.72;4.53;;;;;;;10.69;94.75;101533.75;5215544;28;20029;-80
2022/04/20 08:48:07;;;;;;;5.22;4.22;;;;;;;10.69;94.75;101533.75;5233733;28;20094;-81
2022/04/20 08:50:39;;;;;;;3.83;3.63;;;;;;;10.69;94.75;101533.75;5230557;28;20021;-80
2022/04/20 08:53:10;;;;;;;4.80;4.35;;;;;;;10.69;94.75;101533.75;5232877;28;20026;-82
2022/04/20 08:55:41;;;;;;;3.42;3.25;;;;;;;10.69;94.75;101533.75;5239134;28;20047;-80
2022/04/20 08:58:12;;;;;;;4.43;4.13;;;;;;;10.69;94.75;101533.75;5235278;28;20056;-80
2022/04/20 09:00:42;;;;;;;3.80;3.60;;;;;;;10.69;94.75;101533.75;5234554;28;20032;-80
2022/04/20 09:06:33;;;;;;;4.97;3.95;;;;;;;10.69;94.75;101533.75;5236342;22;20057;-94
2022/04/20 09:09:04;;;;;;;5.38;3.10;;;;;;;10.69;94.75;101533.75;5208352;28;20021;-93
2022/04/20 09:11:40;;;;;;;5.53;4.20;;;;;;;10.69;94.75;101533.75;5224649;28;20030;-92
2022/04/20 09:14:13;;;;;;;4.70;4.28;;;;;;;10.69;94.75;101533.75;5223893;28;20021;-92
2022/04/20 09:16:43;;;;;;;5.13;3.88;;;;;;;10.69;94.75;101533.75;5223418;28;20048;-92
2022/04/20 09:19:26;;;;;;;3.78;3.47;;;;;;;10.69;94.75;101533.75;5227867;28;20065;-94
2022/04/20 09:21:56;;;;;;;10.70;3.95;;;;;;;10.69;94.75;101533.75;5250107;22;20106;-58
2022/04/20 09:24:27;;;;;;;4.97;4.47;;;;;;;10.69;94.75;101533.75;5243836;28;20429;-57
2022/04/20 09:26:57;;;;;;;3.42;3.22;;;;;;;10.69;94.75;101533.75;5259671;28;20050;-58
2022/04/20 09:29:28;;;;;;;3.97;3.78;;;;;;;10.69;94.75;101533.75;5264530;28;20046;-59
2022/04/20 09:31:58;;;;;;;5.63;3.28;;;;;;;10.69;94.75;101533.75;5267164;28;20051;-60
2022/04/20 09:34:29;;;;;;;7.38;4.10;;;;;;;10.69;94.75;101533.75;5269566;28;20020;-60
2022/04/20 09:37:11;;;;;;;4.25;2.83;;;;;;;10.69;94.75;101533.75;5264537;28;20034;-59
2022/04/20 09:39:47;;;;;;;3.42;3.28;;;;;;;10.69;94.75;101533.75;5262711;28;20447;-60
2022/04/20 09:42:19;;;;;;;3.80;3.60;;;;;;;10.69;94.75;101533.75;5265478;28;20024;-60
2022/04/20 09:44:59;;;;;;;4.50;4.10;;;;;;;10.69;94.75;101533.75;5265607;28;20095;-60
2022/04/20 09:50:30;;;;;;;3.35;3.15;;;;;;;10.69;94.75;101533.75;5278943;28;20035;-59
2022/04/20 09:53:06;;;;;;;3.72;3.53;;;;;;;10.69;94.75;101533.75;5252123;28;20024;-60
2022/04/20 09:55:39;;;;;;;5.82;4.13;;;;;;;10.69;94.75;101533.75;5250737;28;20027;-60
2022/04/20 09:58:20;;;;;;;3.15;3.05;;;;;;;10.69;94.75;101533.75;5250330;28;20056;-60
2022/04/20 10:01:00;;;;;;;3.92;3.72;;;;;;;10.69;94.75;101533.75;5250039;28;20507;-60
2022/04/20 10:03:31;;;;;;;;;;;;;;;10.69;94.75;101533.75;5250583;28;20032;-60
2022/04/20 10:06:02;;;;;;;3.47;3.38;;;;;;;10.69;94.75;101533.75;5250501;28;19908;-60
2022/04/20 10:08:33;;;;;;;4.43;4.03;;;;;;;10.69;94.75;101533.75;5250596;28;20085;-59
2022/04/20 10:11:05;;;;;;;3.72;3.47;;;;;;;10.69;94.75;101533.75;5250802;28;20108;-60
2022/04/20 10:13:37;;;;;;;4.38;4.13;;;;;;;10.69;94.75;101533.75;5250216;28;20016;-60
2022/04/20 10:16:12;;;;;;;5.90;4.13;;;;;;;10.69;94.75;101533.75;5251198;28;20484;-61
2022/04/20 10:18:47;;;;;;;3.78;3.53;;;;;;;10.69;94.75;101533.75;5251170;28;20487;-60
2022/04/20 10:21:21;;;;;;;4.85;4.40;;;;;;;10.69;94.75;101533.75;5250184;28;20032;-60
2022/04/20 10:23:53;;;;;;;4.05;3.67;;;;;;;10.69;94.75;101533.75;5249913;28;20089;-60
2022/04/20 10:26:25;;;;;;;4.03;3.83;;;;;;;10.69;94.75;101533.75;5250016;28;20461;-61
2022/04/20 10:29:08;;;;;;;3.83;3.63;;;;;;;10.69;94.75;101533.75;5250598;28;20047;-60
2022/04/20 10:31:48;;;;;;;4.45;4.07;;;;;;;10.69;94.75;101533.75;5250192;28;20066;-60
2022/04/20 10:34:19;;;;;;;5.47;5.07;;;;;;;10.69;94.75;101533.75;5258394;22;20045;-58
2022/04/20 10:37:01;;;;;;;4.20;4.00;;;;;;;10.69;94.75;101533.75;5225747;28;20392;-57
2022/04/20 10:39:37;;;;;;;4.60;4.30;;;;;;;10.69;94.75;101533.75;5224339;28;20071;-60
2022/04/20 10:42:30;;;;;;;4.85;4.43;;;;;;;10.69;94.75;101533.75;5224780;28;20029;-56
2022/04/20 10:45:08;;;;;;;4.63;4.32;;;;;;;10.69;94.75;101533.75;5224340;28;20039;-57
2022/04/20 10:47:44;;;;;;;5.18;3.30;;;;;;;10.69;94.75;101533.75;5224609;28;20103;-59
2022/04/20 10:50:22;;;;;;;6.53;4.82;;;;;;;10.69;94.75;101533.75;5224271;28;20029;-58
2022/04/20 10:53:08;;;;;;;7.10;4.72;;;;;;;10.69;94.75;101533.75;5224494;28;20028;-57
2022/04/20 10:55:39;;;;;;;4.93;4.47;;;;;;;10.69;94.75;101533.75;5224602;28;20029;-61
2022/04/20 10:58:18;;;;;;;3.60;3.38;;;;;;;10.69;94.75;101533.75;5224968;28;20033;-57
2022/04/20 11:01:11;;;;;;;6.40;4.55;;;;;;;10.69;94.75;101533.75;5225112;28;20059;-57
2022/04/20 11:03:57;;;;;;;3.65;3.45;;;;;;;10.69;94.75;101533.75;5223592;28;20021;-55
2022/04/20 11:06:28;;;;;;;4.28;3.97;;;;;;;10.69;94.75;101533.75;5224191;28;20028;-54
2022/04/20 11:09:00;;;;;;;4.22;4.03;;;;;;;10.69;94.75;101533.75;5223847;28;20032;-57
2022/04/20 11:20:22;;;;;;;9.23;5.90;;;;;;;10.69;94.75;101533.75;5188343;28;20045;-56
2022/04/20 11:23:05;;;;;;;6.38;5.80;;;;;;;10.69;94.75;101533.75;5186789;28;20029;-56
2022/04/20 11:25:40;;;;;;;6.18;5.18;;;;;;;10.69;94.75;101533.75;5186486;28;20025;-58
2022/04/20 11:28:10;;;;;;;4.78;4.25;;;;;;;10.69;94.75;101533.75;5188248;28;20025;-59
2022/04/20 11:30:44;;;;;;;5.57;5.18;;;;;;;10.69;94.75;101533.75;5188179;28;20018;-57
2022/04/20 11:33:15;;;;;;;5.07;4.65;;;;;;;10.69;94.75;101533.75;5186382;28;20470;-56
2022/04/20 11:35:58;;;;;;;4.95;4.65;;;;;;;10.69;94.75;101533.75;5186464;28;20042;-56
2022/04/20 11:38:42;;;;;;;5.05;4.75;;;;;;;10.69;94.75;101533.75;5187402;28;20505;-56
2022/04/20 11:41:15;;;;;;;5.43;5.00;;;;;;;10.69;94.75;101533.75;5186744;28;20397;-57
2022/04/20 11:43:49;;;;;;;5.07;4.78;;;;;;;10.69;94.75;101533.75;5185883;28;20026;-56
2022/04/20 11:46:20;;;;;;;5.55;4.65;;;;;;;10.69;94.75;101533.75;5186226;28;20398;-59
2022/04/20 11:48:53;;;;;;;11.98;5.03;;;;;;;10.69;94.75;101533.75;5186361;28;20032;-57
2022/04/20 11:51:31;;;;;;;5.15;3.72;;;;;;;10.69;94.75;101533.75;5186130;28;20433;-58
2022/04/20 11:54:01;;;;;;;4.65;4.35;;;;;;;10.69;94.75;101533.75;5185964;28;20041;-57
2022/04/20 11:56:33;;;;;;;4.15;3.85;;;;;;;10.69;94.75;101533.75;5185851;28;20022;-56
2022/04/20 11:59:06;;;;;;;6.93;6.10;;;;;;;10.69;94.75;101533.75;5185993;28;20041;-58
2022/04/20 12:01:38;;;;;;;4.68;4.18;;;;;;;10.69;94.75;101533.75;5187404;28;20025;-56
2022/04/20 12:04:19;;;;;;;5.70;5.22;;;;;;;10.69;94.75;101533.75;5185553;28;20501;-58
2022/04/20 12:06:52;;;;;;;7.65;5.47;;;;;;;10.69;94.75;101533.75;5185899;28;20095;-57
2022/04/20 12:09:28;;;;;;;5.47;5.03;;;;;;;10.69;94.75;101533.75;5185328;28;20022;-59
2022/04/20 12:12:01;;;;;;;4.85;4.45;;;;;;;10.69;94.75;101533.75;5186179;28;20041;-60
2022/04/20 12:14:40;;;;;;;5.57;5.13;;;;;;;10.69;94.75;101533.75;5185593;28;20167;-58
2022/04/20 12:17:20;;;;;;;4.93;4.45;;;;;;;10.69;94.75;101533.75;5187031;28;20100;-57
2022/04/20 12:19:53;;;;;;;5.70;5.30;;;;;;;10.69;94.75;101533.75;5185781;28;20065;-57